Portada
METAR-TAF:

METAR-TAF

Aeroports :

Chièvres, Bèlgica

latitud: 50-34N, longitud: 003-50E, altitud: 60 m

Observació

L'informe es va fer fa 8 minuts, a les 16:03 UTC
Vent 7 kt del Sud-Oest
Temperatura 9°C
Humitat 81%
Pressió 1016 hPa
Visibilitat 10 km o més

METAR: EBCV 071603Z AUTO 22007KT 9999 OVC023/// 09/06 Q1016 WHT

Hora: 17:11 (16:11 UTC)

Pronòstic

L'informe es va fer fa 4 hores i 30 minuts, a les 11:41 UTC
Pronòstic vàlid del 07 a les 13 UTC al 07 a les 22 UTC
Vent 10 kt del Oest/Sud-Oest
Visibilitat 10 km o més
Núvols disperses a una alçada de 2500 ft
Cel ennuvolat a una alçada de 4000 ft
Evolucionant progressivament
l' 07 a les 20 UTC al 07 a les 22 UTC
Vent 15 kt del Sud-Oest
Núvols disperses a una alçada de 1500 ft
Cel ennuvolat a una alçada de 3500 ft

TAF: EBCV 071141Z 0713/0722 24010KT 9999 SCT025 BKN040 BECMG 0720/0722 23015KT SCT015 BKN035 BY EBWM

Observacions i pronòstics meteorològics de més de 4000 aeroports (METAR i TAF).

Les estacions disponibles són els punts grocs i vermells al mapa.

Posi el ratolí al punt desitjat per veure el nom de l'estació.

Feu clic per veure les observacions i els pronòstics meteorològics.

Per canviar el mapa: feu clic els botons verds amb una creu de color negre per apropar; al botó verd amb un guió per allunyar la imatge; o en les fletxes verdes per a mapes adjacents.


METAR-TAF: